sensor_id;sensor_type;location;lat;lon;timestamp;pressure;altitude;pressure_sealevel;temperature;humidity
4199;BME280;2113;50.946;14.610;2022-07-30T00:01:15;97018.28;;;19.44;59.64
4199;BME280;2113;50.946;14.610;2022-07-30T00:03:44;97015.75;;;19.42;59.88
4199;BME280;2113;50.946;14.610;2022-07-30T00:06:13;97018.59;;;19.63;59.72
4199;BME280;2113;50.946;14.610;2022-07-30T00:08:41;97024.09;;;19.60;59.63
4199;BME280;2113;50.946;14.610;2022-07-30T00:11:09;97019.78;;;19.59;59.74
4199;BME280;2113;50.946;14.610;2022-07-30T00:13:37;97024.50;;;19.43;60.12
4199;BME280;2113;50.946;14.610;2022-07-30T00:16:05;97016.13;;;19.49;59.88
4199;BME280;2113;50.946;14.610;2022-07-30T00:18:33;97014.81;;;19.43;60.19
4199;BME280;2113;50.946;14.610;2022-07-30T00:21:02;97013.06;;;19.55;59.53
4199;BME280;2113;50.946;14.610;2022-07-30T00:23:32;97008.13;;;19.50;59.93
4199;BME280;2113;50.946;14.610;2022-07-30T00:26:00;97013.78;;;19.57;59.18
4199;BME280;2113;50.946;14.610;2022-07-30T00:28:28;97012.19;;;19.43;59.66
4199;BME280;2113;50.946;14.610;2022-07-30T00:30:56;97002.28;;;19.58;59.81
4199;BME280;2113;50.946;14.610;2022-07-30T00:33:25;97010.03;;;19.48;59.98
4199;BME280;2113;50.946;14.610;2022-07-30T00:35:54;97005.16;;;19.31;60.41
4199;BME280;2113;50.946;14.610;2022-07-30T00:38:22;97011.50;;;19.28;60.39
4199;BME280;2113;50.946;14.610;2022-07-30T00:40:51;97011.50;;;19.28;60.62
4199;BME280;2113;50.946;14.610;2022-07-30T00:43:19;97010.97;;;19.23;60.74
4199;BME280;2113;50.946;14.610;2022-07-30T00:45:47;97008.84;;;19.28;60.55
4199;BME280;2113;50.946;14.610;2022-07-30T00:48:18;97012.28;;;19.42;60.24
4199;BME280;2113;50.946;14.610;2022-07-30T00:50:49;97000.28;;;19.38;60.08
4199;BME280;2113;50.946;14.610;2022-07-30T00:53:17;97009.13;;;19.36;60.13
4199;BME280;2113;50.946;14.610;2022-07-30T00:55:45;97004.03;;;19.46;60.01
4199;BME280;2113;50.946;14.610;2022-07-30T00:58:15;97004.75;;;19.72;59.55
4199;BME280;2113;50.946;14.610;2022-07-30T01:00:43;97010.75;;;19.74;59.55
4199;BME280;2113;50.946;14.610;2022-07-30T01:03:11;97011.78;;;19.61;59.79
4199;BME280;2113;50.946;14.610;2022-07-30T01:05:39;97004.75;;;19.48;60.33
4199;BME280;2113;50.946;14.610;2022-07-30T01:08:07;97000.50;;;19.34;60.21
4199;BME280;2113;50.946;14.610;2022-07-30T01:10:35;97006.59;;;19.35;60.61
4199;BME280;2113;50.946;14.610;2022-07-30T01:13:03;96999.78;;;19.32;61.11
4199;BME280;2113;50.946;14.610;2022-07-30T01:15:33;96994.50;;;19.32;60.87
4199;BME280;2113;50.946;14.610;2022-07-30T01:18:03;96998.47;;;19.14;61.30
4199;BME280;2113;50.946;14.610;2022-07-30T01:20:36;96994.81;;;19.28;60.67
4199;BME280;2113;50.946;14.610;2022-07-30T01:23:09;96987.47;;;19.20;61.15
4199;BME280;2113;50.946;14.610;2022-07-30T01:25:54;96990.31;;;19.30;60.74
4199;BME280;2113;50.946;14.610;2022-07-30T01:28:25;96984.22;;;19.41;60.54
4199;BME280;2113;50.946;14.610;2022-07-30T01:30:56;96985.06;;;19.41;61.13
4199;BME280;2113;50.946;14.610;2022-07-30T01:33:26;96983.84;;;19.34;60.98
4199;BME280;2113;50.946;14.610;2022-07-30T01:35:57;96992.81;;;19.31;61.09
4199;BME280;2113;50.946;14.610;2022-07-30T01:38:28;96990.56;;;19.14;61.60
4199;BME280;2113;50.946;14.610;2022-07-30T01:41:02;96989.56;;;19.04;62.20
4199;BME280;2113;50.946;14.610;2022-07-30T01:43:33;96984.91;;;19.07;62.19
4199;BME280;2113;50.946;14.610;2022-07-30T01:46:02;96981.25;;;19.21;61.73
4199;BME280;2113;50.946;14.610;2022-07-30T01:48:34;96984.28;;;19.28;61.39
4199;BME280;2113;50.946;14.610;2022-07-30T01:51:05;96972.34;;;19.11;61.56
4199;BME280;2113;50.946;14.610;2022-07-30T01:53:36;96983.28;;;19.17;61.52
4199;BME280;2113;50.946;14.610;2022-07-30T01:56:07;96990.44;;;18.78;62.40
4199;BME280;2113;50.946;14.610;2022-07-30T01:58:39;96986.38;;;18.62;62.87
4199;BME280;2113;50.946;14.610;2022-07-30T02:01:28;96984.25;;;18.67;62.86
4199;BME280;2113;50.946;14.610;2022-07-30T02:03:59;96986.56;;;18.58;63.15
4199;BME280;2113;50.946;14.610;2022-07-30T02:06:31;96987.56;;;18.94;62.16
4199;BME280;2113;50.946;14.610;2022-07-30T02:09:05;96990.09;;;18.96;61.60
4199;BME280;2113;50.946;14.610;2022-07-30T02:11:42;96969.41;;;19.03;61.59
4199;BME280;2113;50.946;14.610;2022-07-30T02:14:31;96983.56;;;19.02;61.85
4199;BME280;2113;50.946;14.610;2022-07-30T02:17:01;96979.75;;;19.06;61.61
4199;BME280;2113;50.946;14.610;2022-07-30T02:19:33;96978.94;;;18.92;61.49
4199;BME280;2113;50.946;14.610;2022-07-30T02:22:10;96983.03;;;18.96;61.96
4199;BME280;2113;50.946;14.610;2022-07-30T02:24:41;96969.00;;;19.09;62.19
4199;BME280;2113;50.946;14.610;2022-07-30T02:27:14;96972.03;;;19.03;62.97
4199;BME280;2113;50.946;14.610;2022-07-30T02:29:45;96968.47;;;19.04;63.93
4199;BME280;2113;50.946;14.610;2022-07-30T02:32:18;96965.56;;;18.95;65.00
4199;BME280;2113;50.946;14.610;2022-07-30T02:34:50;96970.41;;;18.76;65.74
4199;BME280;2113;50.946;14.610;2022-07-30T02:37:20;96977.69;;;18.72;65.87
4199;BME280;2113;50.946;14.610;2022-07-30T02:40:13;96972.03;;;18.66;65.02
4199;BME280;2113;50.946;14.610;2022-07-30T02:42:45;96980.19;;;18.37;65.80
4199;BME280;2113;50.946;14.610;2022-07-30T02:45:18;96979.00;;;18.54;65.68
4199;BME280;2113;50.946;14.610;2022-07-30T02:47:50;96972.84;;;18.66;67.07
4199;BME280;2113;50.946;14.610;2022-07-30T02:50:19;96964.66;;;18.71;66.57
4199;BME280;2113;50.946;14.610;2022-07-30T02:52:50;96971.91;;;18.80;66.68
4199;BME280;2113;50.946;14.610;2022-07-30T02:55:19;96968.50;;;18.78;66.37
4199;BME280;2113;50.946;14.610;2022-07-30T02:57:50;96969.69;;;18.74;66.63
4199;BME280;2113;50.946;14.610;2022-07-30T03:00:20;96964.22;;;18.64;67.07
4199;BME280;2113;50.946;14.610;2022-07-30T03:02:50;96964.69;;;18.45;67.65
4199;BME280;2113;50.946;14.610;2022-07-30T03:05:23;96965.75;;;18.43;67.98
4199;BME280;2113;50.946;14.610;2022-07-30T03:07:54;96964.69;;;18.45;68.11
4199;BME280;2113;50.946;14.610;2022-07-30T03:10:24;96969.22;;;18.43;68.81
4199;BME280;2113;50.946;14.610;2022-07-30T03:12:55;96965.09;;;18.52;68.05
4199;BME280;2113;50.946;14.610;2022-07-30T03:15:23;96970.03;;;18.56;67.99
4199;BME280;2113;50.946;14.610;2022-07-30T03:17:53;96969.75;;;18.48;68.15
4199;BME280;2113;50.946;14.610;2022-07-30T03:20:25;96977.72;;;18.59;68.68
4199;BME280;2113;50.946;14.610;2022-07-30T03:22:56;96975.50;;;18.66;69.06
4199;BME280;2113;50.946;14.610;2022-07-30T03:25:28;96967.75;;;18.52;69.80
4199;BME280;2113;50.946;14.610;2022-07-30T03:28:00;96973.75;;;18.41;70.30
4199;BME280;2113;50.946;14.610;2022-07-30T03:30:30;96973.13;;;18.25;71.12
4199;BME280;2113;50.946;14.610;2022-07-30T03:33:01;96975.03;;;18.10;72.18
4199;BME280;2113;50.946;14.610;2022-07-30T03:35:31;96986.19;;;18.13;72.25
4199;BME280;2113;50.946;14.610;2022-07-30T03:38:00;96985.66;;;18.08;72.76
4199;BME280;2113;50.946;14.610;2022-07-30T03:40:29;96989.34;;;18.31;72.41
4199;BME280;2113;50.946;14.610;2022-07-30T03:42:59;96991.63;;;18.49;71.77
4199;BME280;2113;50.946;14.610;2022-07-30T03:45:28;96990.75;;;18.74;71.13
4199;BME280;2113;50.946;14.610;2022-07-30T03:48:04;96991.63;;;18.74;70.86
4199;BME280;2113;50.946;14.610;2022-07-30T03:50:34;96988.91;;;18.63;71.36
4199;BME280;2113;50.946;14.610;2022-07-30T03:53:04;96984.03;;;18.70;71.81
4199;BME280;2113;50.946;14.610;2022-07-30T03:55:39;96987.00;;;18.52;72.64
4199;BME280;2113;50.946;14.610;2022-07-30T03:58:30;96988.81;;;18.39;73.19
4199;BME280;2113;50.946;14.610;2022-07-30T04:01:04;96985.53;;;18.23;74.11
4199;BME280;2113;50.946;14.610;2022-07-30T04:03:32;96983.66;;;18.37;74.00
4199;BME280;2113;50.946;14.610;2022-07-30T04:06:03;96980.38;;;18.47;73.86
4199;BME280;2113;50.946;14.610;2022-07-30T04:08:31;96977.22;;;18.42;73.43
4199;BME280;2113;50.946;14.610;2022-07-30T04:11:01;96989.75;;;18.12;74.84
4199;BME280;2113;50.946;14.610;2022-07-30T04:13:45;96979.88;;;18.16;74.99
4199;BME280;2113;50.946;14.610;2022-07-30T04:16:19;96975.03;;;18.10;75.00
4199;BME280;2113;50.946;14.610;2022-07-30T04:19:14;96976.09;;;18.20;74.99
4199;BME280;2113;50.946;14.610;2022-07-30T04:21:43;96965.78;;;18.04;75.84
4199;BME280;2113;50.946;14.610;2022-07-30T04:24:15;96971.22;;;18.01;76.04
4199;BME280;2113;50.946;14.610;2022-07-30T04:26:45;96966.06;;;17.99;76.50
4199;BME280;2113;50.946;14.610;2022-07-30T04:29:17;96968.06;;;18.09;76.31
4199;BME280;2113;50.946;14.610;2022-07-30T04:31:52;96963.97;;;17.92;76.53
4199;BME280;2113;50.946;14.610;2022-07-30T04:34:54;96969.03;;;17.95;76.77
4199;BME280;2113;50.946;14.610;2022-07-30T04:37:43;96969.56;;;18.00;76.76
4199;BME280;2113;50.946;14.610;2022-07-30T04:40:11;96967.97;;;17.97;76.87
4199;BME280;2113;50.946;14.610;2022-07-30T04:42:39;96964.06;;;17.90;77.20
4199;BME280;2113;50.946;14.610;2022-07-30T04:45:11;96959.88;;;17.88;77.18
4199;BME280;2113;50.946;14.610;2022-07-30T04:48:05;96965.22;;;17.86;77.31
4199;BME280;2113;50.946;14.610;2022-07-30T04:50:38;96954.38;;;18.04;76.68
4199;BME280;2113;50.946;14.610;2022-07-30T04:53:10;96968.84;;;17.98;76.59
4199;BME280;2113;50.946;14.610;2022-07-30T04:55:45;96971.78;;;18.06;76.67
4199;BME280;2113;50.946;14.610;2022-07-30T04:58:15;96970.81;;;18.20;76.24
4199;BME280;2113;50.946;14.610;2022-07-30T05:00:47;96972.06;;;18.14;76.55
4199;BME280;2113;50.946;14.610;2022-07-30T05:03:22;96975.44;;;18.16;76.37
4199;BME280;2113;50.946;14.610;2022-07-30T05:05:54;96973.13;;;18.25;76.17
4199;BME280;2113;50.946;14.610;2022-07-30T05:08:26;96973.25;;;18.10;76.45
4199;BME280;2113;50.946;14.610;2022-07-30T05:10:58;96976.59;;;18.12;76.67
4199;BME280;2113;50.946;14.610;2022-07-30T05:13:26;96977.97;;;18.18;76.40
4199;BME280;2113;50.946;14.610;2022-07-30T05:16:06;96981.22;;;17.96;77.20
4199;BME280;2113;50.946;14.610;2022-07-30T05:18:34;96986.19;;;18.13;76.65
4199;BME280;2113;50.946;14.610;2022-07-30T05:21:03;96979.88;;;18.16;76.66
4199;BME280;2113;50.946;14.610;2022-07-30T05:23:38;96986.19;;;18.26;76.48
4199;BME280;2113;50.946;14.610;2022-07-30T05:26:22;96979.97;;;18.27;76.17
4199;BME280;2113;50.946;14.610;2022-07-30T05:28:54;96989.22;;;18.20;76.84
4199;BME280;2113;50.946;14.610;2022-07-30T05:31:39;96990.19;;;18.06;76.88
4199;BME280;2113;50.946;14.610;2022-07-30T05:34:08;96987.13;;;18.12;77.20
4199;BME280;2113;50.946;14.610;2022-07-30T05:36:42;96983.44;;;18.28;76.68
4199;BME280;2113;50.946;14.610;2022-07-30T05:39:13;96986.41;;;18.23;76.75
4199;BME280;2113;50.946;14.610;2022-07-30T05:41:51;96976.59;;;18.12;76.96
4199;BME280;2113;50.946;14.610;2022-07-30T05:44:24;96980.50;;;18.19;76.89
4199;BME280;2113;50.946;14.610;2022-07-30T05:46:53;96985.84;;;18.05;77.26
4199;BME280;2113;50.946;14.610;2022-07-30T05:49:21;96987.44;;;17.95;77.24
4199;BME280;2113;50.946;14.610;2022-07-30T05:51:51;96992.09;;;18.04;77.19
4199;BME280;2113;50.946;14.610;2022-07-30T05:54:20;96999.66;;;18.09;76.72
4199;BME280;2113;50.946;14.610;2022-07-30T05:57:05;97005.31;;;17.90;76.66
4199;BME280;2113;50.946;14.610;2022-07-30T05:59:36;97001.09;;;17.87;76.45
4199;BME280;2113;50.946;14.610;2022-07-30T06:02:09;96997.84;;;18.09;75.36
4199;BME280;2113;50.946;14.610;2022-07-30T06:04:53;97016.38;;;17.95;73.52
4199;BME280;2113;50.946;14.610;2022-07-30T06:07:22;97014.75;;;17.79;72.17
4199;BME280;2113;50.946;14.610;2022-07-30T06:09:52;97016.41;;;17.80;72.49
4199;BME280;2113;50.946;14.610;2022-07-30T06:12:26;97015.72;;;17.51;72.87
4199;BME280;2113;50.946;14.610;2022-07-30T06:14:55;97016.63;;;17.37;73.79
4199;BME280;2113;50.946;14.610;2022-07-30T06:17:41;97025.97;;;17.41;73.83
4199;BME280;2113;50.946;14.610;2022-07-30T06:20:33;97019.66;;;17.31;74.34
4199;BME280;2113;50.946;14.610;2022-07-30T06:23:11;97018.66;;;17.59;73.08
4199;BME280;2113;50.946;14.610;2022-07-30T06:25:53;97019.31;;;17.50;72.95
4199;BME280;2113;50.946;14.610;2022-07-30T06:28:22;97020.81;;;17.40;73.16
4199;BME280;2113;50.946;14.610;2022-07-30T06:31:23;97015.94;;;17.61;73.22
4199;BME280;2113;50.946;14.610;2022-07-30T06:33:53;97023.28;;;17.56;72.43
4199;BME280;2113;50.946;14.610;2022-07-30T06:36:23;97020.19;;;17.36;73.27
4199;BME280;2113;50.946;14.610;2022-07-30T06:38:59;97011.69;;;17.46;72.88
4199;BME280;2113;50.946;14.610;2022-07-30T06:42:05;97013.88;;;17.66;72.14
4199;BME280;2113;50.946;14.610;2022-07-30T06:44:59;97022.22;;;17.46;72.48
4199;BME280;2113;50.946;14.610;2022-07-30T06:47:44;97016.41;;;17.80;71.68
4199;BME280;2113;50.946;14.610;2022-07-30T06:50:14;97019.97;;;18.07;70.00
4199;BME280;2113;50.946;14.610;2022-07-30T06:52:44;97021.91;;;17.90;70.34
4199;BME280;2113;50.946;14.610;2022-07-30T06:55:13;97034.59;;;18.11;70.92
4199;BME280;2113;50.946;14.610;2022-07-30T06:57:46;97028.06;;;18.16;69.55
4199;BME280;2113;50.946;14.610;2022-07-30T07:00:34;97032.63;;;18.40;70.92
4199;BME280;2113;50.946;14.610;2022-07-30T07:03:08;97030.81;;;18.53;69.10
4199;BME280;2113;50.946;14.610;2022-07-30T07:05:39;97023.94;;;18.76;69.64
4199;BME280;2113;50.946;14.610;2022-07-30T07:08:07;97028.25;;;18.65;69.01
4199;BME280;2113;50.946;14.610;2022-07-30T07:10:40;97025.72;;;18.76;68.71
4199;BME280;2113;50.946;14.610;2022-07-30T07:13:22;97032.81;;;19.12;67.98
4199;BME280;2113;50.946;14.610;2022-07-30T07:15:50;97024.06;;;18.88;67.53
4199;BME280;2113;50.946;14.610;2022-07-30T07:18:21;97031.84;;;18.64;68.19
4199;BME280;2113;50.946;14.610;2022-07-30T07:20:55;97020.19;;;18.42;69.17
4199;BME280;2113;50.946;14.610;2022-07-30T07:23:23;97025.22;;;18.58;70.33
4199;BME280;2113;50.946;14.610;2022-07-30T07:26:10;97022.47;;;18.85;69.19
4199;BME280;2113;50.946;14.610;2022-07-30T07:28:38;97017.72;;;18.77;69.45
4199;BME280;2113;50.946;14.610;2022-07-30T07:31:07;97017.91;;;19.00;69.29
4199;BME280;2113;50.946;14.610;2022-07-30T07:33:37;97013.09;;;18.81;68.98
4199;BME280;2113;50.946;14.610;2022-07-30T07:36:10;97007.72;;;18.70;69.88
4199;BME280;2113;50.946;14.610;2022-07-30T07:38:38;97016.44;;;18.96;69.48
4199;BME280;2113;50.946;14.610;2022-07-30T07:41:06;97014.69;;;18.71;69.70
4199;BME280;2113;50.946;14.610;2022-07-30T07:43:35;97006.13;;;18.80;70.47
4199;BME280;2113;50.946;14.610;2022-07-30T07:46:03;97012.06;;;18.45;70.80
4199;BME280;2113;50.946;14.610;2022-07-30T07:48:32;97014.59;;;18.34;70.87
4199;BME280;2113;50.946;14.610;2022-07-30T07:51:18;97021.66;;;18.46;71.38
4199;BME280;2113;50.946;14.610;2022-07-30T07:54:10;97010.69;;;18.01;72.31
4199;BME280;2113;50.946;14.610;2022-07-30T07:56:48;97010.38;;;17.93;73.05
4199;BME280;2113;50.946;14.610;2022-07-30T07:59:25;97016.22;;;17.84;73.91
4199;BME280;2113;50.946;14.610;2022-07-30T08:02:10;97007.78;;;17.78;73.83
4199;BME280;2113;50.946;14.610;2022-07-30T08:04:54;97016.97;;;17.86;74.14
4199;BME280;2113;50.946;14.610;2022-07-30T08:07:43;97009.63;;;17.91;74.19
4199;BME280;2113;50.946;14.610;2022-07-30T08:10:47;97011.81;;;17.84;74.89
4199;BME280;2113;50.946;14.610;2022-07-30T08:13:38;97023.22;;;18.10;73.71
4199;BME280;2113;50.946;14.610;2022-07-30T08:16:36;97019.84;;;18.08;73.59
4199;BME280;2113;50.946;14.610;2022-07-30T08:19:40;97022.16;;;18.51;73.41
4199;BME280;2113;50.946;14.610;2022-07-30T08:22:16;97029.44;;;18.22;73.45
4199;BME280;2113;50.946;14.610;2022-07-30T08:24:46;97024.38;;;18.32;74.09
4199;BME280;2113;50.946;14.610;2022-07-30T08:27:14;97027.31;;;18.66;72.64
4199;BME280;2113;50.946;14.610;2022-07-30T08:29:43;97031.22;;;18.60;72.13
4199;BME280;2113;50.946;14.610;2022-07-30T08:32:12;97025.34;;;18.82;72.75
4199;BME280;2113;50.946;14.610;2022-07-30T08:34:41;97024.25;;;18.97;71.96
4199;BME280;2113;50.946;14.610;2022-07-30T08:37:10;97021.94;;;18.93;71.26
4199;BME280;2113;50.946;14.610;2022-07-30T08:39:40;97027.31;;;18.78;72.45
4199;BME280;2113;50.946;14.610;2022-07-30T08:42:12;97028.59;;;18.60;72.83
4199;BME280;2113;50.946;14.610;2022-07-30T08:44:42;97020.69;;;18.73;73.55
4199;BME280;2113;50.946;14.610;2022-07-30T08:47:15;97023.00;;;18.65;73.15
4199;BME280;2113;50.946;14.610;2022-07-30T08:50:13;97026.88;;;18.72;74.13
4199;BME280;2113;50.946;14.610;2022-07-30T08:53:01;97037.13;;;18.64;73.41
4199;BME280;2113;50.946;14.610;2022-07-30T08:55:30;97029.31;;;18.75;73.86
4199;BME280;2113;50.946;14.610;2022-07-30T08:58:00;97037.75;;;18.67;73.92
4199;BME280;2113;50.946;14.610;2022-07-30T09:00:29;97038.19;;;18.61;73.65
4199;BME280;2113;50.946;14.610;2022-07-30T09:02:57;97032.47;;;18.80;73.27
4199;BME280;2113;50.946;14.610;2022-07-30T09:05:26;97037.97;;;18.90;72.97
4199;BME280;2113;50.946;14.610;2022-07-30T09:07:54;97038.06;;;18.88;72.99
4199;BME280;2113;50.946;14.610;2022-07-30T09:10:23;97034.06;;;18.95;72.50
4199;BME280;2113;50.946;14.610;2022-07-30T09:12:52;97036.81;;;18.81;72.83
4199;BME280;2113;50.946;14.610;2022-07-30T09:15:22;97038.59;;;18.68;73.57
4199;BME280;2113;50.946;14.610;2022-07-30T09:17:54;97034.19;;;18.43;72.78
4199;BME280;2113;50.946;14.610;2022-07-30T09:20:26;97039.75;;;18.38;74.08
4199;BME280;2113;50.946;14.610;2022-07-30T09:22:56;97040.28;;;18.30;74.11
4199;BME280;2113;50.946;14.610;2022-07-30T09:25:38;97039.09;;;18.09;74.21
4199;BME280;2113;50.946;14.610;2022-07-30T09:28:29;97044.41;;;18.22;74.59
4199;BME280;2113;50.946;14.610;2022-07-30T09:31:12;97045.31;;;18.20;74.77
4199;BME280;2113;50.946;14.610;2022-07-30T09:34:22;97047.22;;;18.06;74.85
4199;BME280;2113;50.946;14.610;2022-07-30T09:37:16;97044.50;;;18.20;75.07
4199;BME280;2113;50.946;14.610;2022-07-30T09:40:10;97054.19;;;18.19;74.52
4199;BME280;2113;50.946;14.610;2022-07-30T09:43:27;97052.19;;;18.36;74.39
4199;BME280;2113;50.946;14.610;2022-07-30T09:46:07;97044.81;;;18.41;73.98
4199;BME280;2113;50.946;14.610;2022-07-30T09:48:38;97049.75;;;18.46;73.74
4199;BME280;2113;50.946;14.610;2022-07-30T09:51:06;97056.06;;;18.43;73.62
4199;BME280;2113;50.946;14.610;2022-07-30T09:53:54;97056.38;;;18.64;72.96
4199;BME280;2113;50.946;14.610;2022-07-30T09:56:28;97054.81;;;18.62;72.67
4199;BME280;2113;50.946;14.610;2022-07-30T09:58:58;97062.19;;;18.69;72.68
4199;BME280;2113;50.946;14.610;2022-07-30T10:01:27;97058.81;;;18.54;72.54
4199;BME280;2113;50.946;14.610;2022-07-30T10:04:34;97056.56;;;17.97;73.61
4199;BME280;2113;50.946;14.610;2022-07-30T10:07:19;97046.47;;;18.04;74.27
4199;BME280;2113;50.946;14.610;2022-07-30T10:09:58;97048.69;;;18.23;73.93
4199;BME280;2113;50.946;14.610;2022-07-30T10:12:30;97048.91;;;18.19;74.32
4199;BME280;2113;50.946;14.610;2022-07-30T10:15:01;97060.19;;;18.22;73.54
4199;BME280;2113;50.946;14.610;2022-07-30T10:17:33;97049.97;;;18.30;73.81
4199;BME280;2113;50.946;14.610;2022-07-30T10:20:21;97056.50;;;18.37;73.95
4199;BME280;2113;50.946;14.610;2022-07-30T10:23:09;97060.50;;;18.81;72.33
4199;BME280;2113;50.946;14.610;2022-07-30T10:26:01;97063.03;;;18.70;71.36
4199;BME280;2113;50.946;14.610;2022-07-30T10:28:52;97056.59;;;18.87;71.87
4199;BME280;2113;50.946;14.610;2022-07-30T10:31:20;97050.34;;;19.01;70.86
4199;BME280;2113;50.946;14.610;2022-07-30T10:34:11;97056.88;;;19.08;71.63
4199;BME280;2113;50.946;14.610;2022-07-30T10:36:44;97053.44;;;19.31;70.73
4199;BME280;2113;50.946;14.610;2022-07-30T10:39:19;97058.78;;;19.67;70.48
4199;BME280;2113;50.946;14.610;2022-07-30T10:42:02;97060.25;;;19.95;68.50
4199;BME280;2113;50.946;14.610;2022-07-30T10:47:44;97051.69;;;19.67;69.09
4199;BME280;2113;50.946;14.610;2022-07-30T10:50:17;97054.56;;;20.24;67.28
4199;BME280;2113;50.946;14.610;2022-07-30T10:52:51;97048.84;;;20.41;67.87
4199;BME280;2113;50.946;14.610;2022-07-30T10:55:22;97050.22;;;20.23;68.11
4199;BME280;2113;50.946;14.610;2022-07-30T10:58:05;97046.44;;;19.67;68.73
4199;BME280;2113;50.946;14.610;2022-07-30T11:00:34;97054.13;;;20.41;67.63
4199;BME280;2113;50.946;14.610;2022-07-30T11:03:16;97057.19;;;20.82;65.68
4199;BME280;2113;50.946;14.610;2022-07-30T11:05:46;97060.53;;;21.06;65.49
4199;BME280;2113;50.946;14.610;2022-07-30T11:08:34;97060.78;;;20.23;66.56
4199;BME280;2113;50.946;14.610;2022-07-30T11:11:04;97061.50;;;20.25;67.45
4199;BME280;2113;50.946;14.610;2022-07-30T11:13:51;97062.00;;;20.19;67.22
4199;BME280;2113;50.946;14.610;2022-07-30T11:16:22;97057.31;;;19.39;68.53
4199;BME280;2113;50.946;14.610;2022-07-30T11:19:05;97061.22;;;19.09;70.01
4199;BME280;2113;50.946;14.610;2022-07-30T11:22:23;97056.78;;;18.96;70.81
4199;BME280;2113;50.946;14.610;2022-07-30T11:24:53;97057.13;;;18.28;72.65
4199;BME280;2113;50.946;14.610;2022-07-30T11:27:34;97064.31;;;18.90;71.46
4199;BME280;2113;50.946;14.610;2022-07-30T11:30:04;97061.94;;;19.11;70.50
4199;BME280;2113;50.946;14.610;2022-07-30T11:32:34;97068.44;;;19.18;70.89
4199;BME280;2113;50.946;14.610;2022-07-30T11:35:15;97076.03;;;19.23;71.36
4199;BME280;2113;50.946;14.610;2022-07-30T11:38:01;97082.09;;;18.73;72.03
4199;BME280;2113;50.946;14.610;2022-07-30T11:40:32;97083.88;;;18.98;72.43
4199;BME280;2113;50.946;14.610;2022-07-30T11:43:20;97087.13;;;18.51;71.78
4199;BME280;2113;50.946;14.610;2022-07-30T11:46:06;97082.81;;;18.75;73.00
4199;BME280;2113;50.946;14.610;2022-07-30T11:48:37;97083.34;;;18.68;72.00
4199;BME280;2113;50.946;14.610;2022-07-30T11:51:06;97080.53;;;19.58;70.97
4199;BME280;2113;50.946;14.610;2022-07-30T11:53:35;97080.28;;;19.73;69.78
4199;BME280;2113;50.946;14.610;2022-07-30T11:56:05;97082.91;;;19.49;69.68
4199;BME280;2113;50.946;14.610;2022-07-30T11:58:39;97081.53;;;19.07;70.95
4199;BME280;2113;50.946;14.610;2022-07-30T12:01:11;97082.63;;;18.91;71.57
4199;BME280;2113;50.946;14.610;2022-07-30T12:03:41;97080.72;;;18.68;71.89
4199;BME280;2113;50.946;14.610;2022-07-30T12:06:11;97080.50;;;18.84;72.12
4199;BME280;2113;50.946;14.610;2022-07-30T12:08:45;97091.69;;;18.87;71.81
4199;BME280;2113;50.946;14.610;2022-07-30T12:11:15;97088.09;;;18.63;72.56
4199;BME280;2113;50.946;14.610;2022-07-30T12:13:54;97100.50;;;18.61;72.97
4199;BME280;2113;50.946;14.610;2022-07-30T12:16:22;97102.41;;;18.58;73.43
4199;BME280;2113;50.946;14.610;2022-07-30T12:18:51;97104.41;;;18.29;73.70
4199;BME280;2113;50.946;14.610;2022-07-30T12:21:20;97106.19;;;18.29;73.85
4199;BME280;2113;50.946;14.610;2022-07-30T12:23:55;97108.88;;;18.14;74.68
4199;BME280;2113;50.946;14.610;2022-07-30T12:26:26;97101.97;;;18.39;74.25
4199;BME280;2113;50.946;14.610;2022-07-30T12:28:56;97102.13;;;18.63;72.88
4199;BME280;2113;50.946;14.610;2022-07-30T12:31:26;97102.41;;;18.33;73.50
4199;BME280;2113;50.946;14.610;2022-07-30T12:33:55;97105.38;;;18.54;73.38
4199;BME280;2113;50.946;14.610;2022-07-30T12:36:27;97104.31;;;18.95;72.48
4199;BME280;2113;50.946;14.610;2022-07-30T12:38:57;97112.31;;;18.93;71.89
4199;BME280;2113;50.946;14.610;2022-07-30T12:41:51;97111.78;;;18.63;72.43
4199;BME280;2113;50.946;14.610;2022-07-30T12:44:36;97109.66;;;18.55;73.20
4199;BME280;2113;50.946;14.610;2022-07-30T12:47:05;97117.56;;;18.55;72.91
4199;BME280;2113;50.946;14.610;2022-07-30T12:49:45;97111.50;;;18.80;72.65
4199;BME280;2113;50.946;14.610;2022-07-30T12:52:20;97110.84;;;18.51;73.10
4199;BME280;2113;50.946;14.610;2022-07-30T12:54:56;97119.81;;;18.08;73.90
4199;BME280;2113;50.946;14.610;2022-07-30T12:57:26;97117.38;;;17.92;74.42
4199;BME280;2113;50.946;14.610;2022-07-30T13:00:02;97118.53;;;18.01;74.29
4199;BME280;2113;50.946;14.610;2022-07-30T13:02:32;97121.72;;;18.06;74.00
4199;BME280;2113;50.946;14.610;2022-07-30T13:05:00;97117.28;;;18.07;74.25
4199;BME280;2113;50.946;14.610;2022-07-30T13:07:51;97124.44;;;18.05;74.32
4199;BME280;2113;50.946;14.610;2022-07-30T13:10:20;97129.53;;;17.66;75.02
4199;BME280;2113;50.946;14.610;2022-07-30T13:12:54;97138.69;;;17.88;74.83
4199;BME280;2113;50.946;14.610;2022-07-30T13:15:24;97135.22;;;17.87;74.89
4199;BME280;2113;50.946;14.610;2022-07-30T13:17:52;97138.34;;;17.79;74.57
4199;BME280;2113;50.946;14.610;2022-07-30T13:20:21;97132.31;;;17.77;74.36
4199;BME280;2113;50.946;14.610;2022-07-30T13:22:49;97136.84;;;18.03;74.14
4199;BME280;2113;50.946;14.610;2022-07-30T13:25:17;97133.03;;;18.21;74.16
4199;BME280;2113;50.946;14.610;2022-07-30T13:27:46;97139.03;;;18.36;73.75
4199;BME280;2113;50.946;14.610;2022-07-30T13:30:15;97135.31;;;17.86;74.36
4199;BME280;2113;50.946;14.610;2022-07-30T13:32:44;97145.25;;;17.80;74.61
4199;BME280;2113;50.946;14.610;2022-07-30T13:35:13;97148.59;;;17.70;74.86
4199;BME280;2113;50.946;14.610;2022-07-30T13:37:41;97150.56;;;17.66;75.04
4199;BME280;2113;50.946;14.610;2022-07-30T13:40:09;97145.16;;;17.96;74.59
4199;BME280;2113;50.946;14.610;2022-07-30T13:42:38;97144.50;;;18.46;73.22
4199;BME280;2113;50.946;14.610;2022-07-30T13:45:07;97146.78;;;18.12;72.43
4199;BME280;2113;50.946;14.610;2022-07-30T13:47:37;97154.28;;;17.76;73.83
4199;BME280;2113;50.946;14.610;2022-07-30T13:50:05;97156.75;;;17.79;74.78
4199;BME280;2113;50.946;14.610;2022-07-30T13:52:33;97156.09;;;17.76;74.35